createdAt,value
2023-04-12T00:00:35.206Z,96187.94
2023-04-12T00:03:07.915Z,96188.72
2023-04-12T00:05:36.262Z,96180.41
2023-04-12T00:08:05.062Z,96177.28
2023-04-12T00:10:32.950Z,96178.38
2023-04-12T00:13:00.974Z,96176.03
2023-04-12T00:15:29.426Z,96170.66
2023-04-12T00:17:57.973Z,96165.28
2023-04-12T00:20:27.950Z,96162.97
2023-04-12T00:22:57.828Z,96160.66
2023-04-12T00:25:26.350Z,96153.94
2023-04-12T00:27:54.790Z,96161.91
2023-04-12T00:30:23.725Z,96154.66
2023-04-12T00:32:52.297Z,96147.03
2023-04-12T00:35:20.357Z,96142.34
2023-04-12T00:37:50.397Z,96138.31
2023-04-12T00:40:18.440Z,96142.50
2023-04-12T00:42:46.959Z,96134.91
2023-04-12T00:45:15.380Z,96130.69
2023-04-12T00:47:44.383Z,96127.28
2023-04-12T00:50:13.501Z,96137.69
2023-04-12T00:52:41.697Z,96131.22
2023-04-12T00:55:12.028Z,96125.78
2023-04-12T00:57:41.899Z,96120.28
2023-04-12T01:00:14.014Z,96120.91
2023-04-12T01:02:47.690Z,96132.19
2023-04-12T01:05:22.699Z,96129.72
2023-04-12T01:07:57.066Z,96123.09
2023-04-12T01:10:35.323Z,96128.03
2023-04-12T01:13:15.405Z,96122.72
2023-04-12T01:15:52.825Z,96128.81
2023-04-12T01:18:24.614Z,96127.09
2023-04-12T01:20:57.748Z,96121.53
2023-04-12T01:23:43.629Z,96120.97
2023-04-12T01:26:25.836Z,96117.84
2023-04-12T01:28:56.458Z,96115.69
2023-04-12T01:31:26.197Z,96113.88
2023-04-12T01:33:56.028Z,96115.31
2023-04-12T01:36:27.423Z,96108.16
2023-04-12T01:38:56.001Z,96108.75
2023-04-12T01:41:23.801Z,96099.41
2023-04-12T01:43:51.472Z,96097.44
2023-04-12T01:46:25.062Z,96094.66
2023-04-12T01:48:54.660Z,96097.88
2023-04-12T01:51:36.138Z,96091.84
2023-04-12T01:54:11.504Z,96097.25
2023-04-12T01:56:42.940Z,96086.22
2023-04-12T01:59:11.999Z,96087.03
2023-04-12T02:01:41.791Z,96077.25
2023-04-12T02:04:11.153Z,96069.44
2023-04-12T02:06:40.118Z,96072.59
2023-04-12T02:09:08.074Z,96071.72
2023-04-12T02:11:36.122Z,96060.88
2023-04-12T02:14:04.172Z,96059.88
2023-04-12T02:16:32.661Z,96062.91
2023-04-12T02:19:02.234Z,96064.09
2023-04-12T02:21:30.355Z,96057.28
2023-04-12T02:23:58.519Z,96055.03
2023-04-12T02:26:27.710Z,96056.22
2023-04-12T02:28:55.973Z,96041.41
2023-04-12T02:31:24.805Z,96033.22
2023-04-12T02:33:52.825Z,96033.63
2023-04-12T02:36:22.127Z,96027.56
2023-04-12T02:38:50.985Z,96021.66
2023-04-12T02:41:19.917Z,96019.34
2023-04-12T02:43:48.566Z,96012.47
2023-04-12T02:46:18.250Z,96010.44
2023-04-12T02:48:46.431Z,96000.38
2023-04-12T02:51:14.966Z,96005.97
2023-04-12T02:53:44.945Z,96010.53
2023-04-12T02:56:13.537Z,95992.72
2023-04-12T02:58:41.873Z,96003.69
2023-04-12T03:01:13.140Z,95993.59
2023-04-12T03:03:41.227Z,95991.22
2023-04-12T03:06:09.914Z,95993.28
2023-04-12T03:08:38.152Z,95985.31
2023-04-12T03:11:07.632Z,95982.06
2023-04-12T03:13:35.586Z,95978.84
2023-04-12T03:16:23.792Z,95977.59
2023-04-12T03:18:52.447Z,95968.31
2023-04-12T03:21:20.772Z,95964.63
2023-04-12T03:23:48.924Z,95962.41
2023-04-12T03:26:20.458Z,95948.72
2023-04-12T03:28:49.523Z,95950.22
2023-04-12T03:31:21.800Z,95957.59
2023-04-12T03:33:50.077Z,95945.34
2023-04-12T03:36:18.764Z,95943.47
2023-04-12T03:38:46.876Z,95934.41
2023-04-12T03:41:15.572Z,95939.38
2023-04-12T03:43:45.262Z,95925.13
2023-04-12T03:46:15.978Z,95920.47
2023-04-12T03:48:43.807Z,95917.44
2023-04-12T03:51:12.525Z,95921.19
2023-04-12T03:53:40.631Z,95913.56
2023-04-12T03:56:09.628Z,95915.38
2023-04-12T03:58:38.226Z,95905.78
2023-04-12T04:01:09.633Z,95903.19
2023-04-12T04:03:38.077Z,95890.03
2023-04-12T04:06:06.795Z,95886.28
2023-04-12T04:08:35.094Z,95881.91
2023-04-12T04:11:03.122Z,95871.69
2023-04-12T04:13:30.811Z,95871.31
2023-04-12T04:16:01.321Z,95863.19
2023-04-12T04:18:30.892Z,95861.44
2023-04-12T04:20:59.683Z,95860.53
2023-04-12T04:23:29.318Z,95856.16
2023-04-12T04:25:58.760Z,95852.13
2023-04-12T04:28:27.908Z,95844.13
2023-04-12T04:30:57.070Z,95846.19
2023-04-12T04:33:25.167Z,95848.50
2023-04-12T04:35:57.850Z,95851.56
2023-04-12T04:38:26.597Z,95855.06
2023-04-12T04:40:55.472Z,95854.66
2023-04-12T04:43:23.828Z,95854.03
2023-04-12T04:45:54.996Z,95848.63
2023-04-12T04:48:23.418Z,95855.00
2023-04-12T04:50:53.160Z,95839.41
2023-04-12T04:53:34.010Z,95842.41
2023-04-12T04:56:02.329Z,95840.19
2023-04-12T04:58:30.689Z,95837.59
2023-04-12T05:00:59.870Z,95840.94
2023-04-12T05:03:30.788Z,95836.28
2023-04-12T05:05:59.516Z,95832.47
2023-04-12T05:08:30.335Z,95826.47
2023-04-12T05:10:59.119Z,95831.03
2023-04-12T05:13:27.463Z,95822.06
2023-04-12T05:15:55.599Z,95819.75
2023-04-12T05:18:23.793Z,95818.72
2023-04-12T05:20:51.623Z,95814.94
2023-04-12T05:23:19.731Z,95821.38
2023-04-12T05:25:50.315Z,95817.38
2023-04-12T05:28:18.658Z,95813.31
2023-04-12T05:30:47.115Z,95807.22
2023-04-12T05:33:16.059Z,95808.03
2023-04-12T05:35:44.340Z,95806.66
2023-04-12T05:38:12.556Z,95810.13
2023-04-12T05:40:42.533Z,95803.81
2023-04-12T05:43:13.390Z,95808.91
2023-04-12T05:45:42.207Z,95803.34
2023-04-12T05:48:10.578Z,95801.19
2023-04-12T05:50:39.011Z,95802.59
2023-04-12T05:53:07.402Z,95801.59
2023-04-12T05:55:37.867Z,95800.63
2023-04-12T05:58:06.209Z,95804.00
2023-04-12T07:28:27.138Z,95650.34
2023-04-12T09:01:22.892Z,95515.25
2023-04-12T09:03:51.990Z,95513.84
2023-04-12T09:06:19.744Z,95514.66
2023-04-12T09:08:54.628Z,95497.03
2023-04-12T09:11:24.473Z,95488.22
2023-04-12T09:13:52.294Z,95496.84
2023-04-12T09:16:35.068Z,95499.81
2023-04-12T09:19:04.022Z,95493.63
2023-04-12T09:21:32.873Z,95495.81
2023-04-12T09:24:06.161Z,95480.19
2023-04-12T09:26:33.770Z,95490.41
2023-04-12T09:29:01.286Z,95488.59
2023-04-12T09:31:28.998Z,95500.22
2023-04-12T09:34:09.404Z,95488.22
2023-04-12T09:36:40.677Z,95484.56
2023-04-12T09:39:08.955Z,95470.16
2023-04-12T09:41:36.662Z,95477.56
2023-04-12T09:44:04.531Z,95477.34
2023-04-12T09:46:32.153Z,95475.34
2023-04-12T09:49:00.543Z,95464.31
2023-04-12T09:51:31.165Z,95457.31
2023-04-12T09:54:00.839Z,95470.16
2023-04-12T09:56:32.075Z,95475.34
2023-04-12T09:59:03.477Z,95470.75
2023-04-12T10:01:34.711Z,95467.72
2023-04-12T10:04:03.824Z,95462.53
2023-04-12T10:06:33.993Z,95448.09
2023-04-12T10:09:04.383Z,95454.72
2023-04-12T10:11:33.856Z,95445.91
2023-04-12T10:14:03.597Z,95455.31
2023-04-12T10:16:32.043Z,95448.69
2023-04-12T10:19:03.878Z,95443.06
2023-04-12T10:21:32.953Z,95442.44
2023-04-12T10:24:00.668Z,95439.81
2023-04-12T10:26:28.883Z,95440.97
2023-04-12T10:29:23.164Z,95444.53
2023-04-12T10:31:51.122Z,95431.69
2023-04-12T10:34:18.933Z,95430.31
2023-04-12T10:36:56.042Z,95437.09
2023-04-12T10:39:40.227Z,95438.72
2023-04-12T10:42:18.464Z,95439.69
2023-04-12T10:44:46.543Z,95437.81
2023-04-12T10:47:14.374Z,95425.97
2023-04-12T10:49:41.976Z,95424.56
2023-04-12T10:52:17.905Z,95419.50
2023-04-12T10:54:45.412Z,95416.03
2023-04-12T10:57:41.690Z,95418.22
2023-04-12T11:00:10.683Z,95420.38
2023-04-12T11:03:07.577Z,95431.78
2023-04-12T11:06:09.276Z,95415.84
2023-04-12T11:08:42.684Z,95411.03
2023-04-12T11:11:20.482Z,95421.00
2023-04-12T11:13:48.181Z,95410.50
2023-04-12T11:16:16.130Z,95412.47
2023-04-12T11:18:47.548Z,95410.25
2023-04-12T11:21:15.561Z,95410.84
2023-04-12T11:23:44.752Z,95394.78
2023-04-12T11:26:12.385Z,95403.59
2023-04-12T11:28:39.981Z,95394.78
2023-04-12T11:31:07.636Z,95379.06
2023-04-12T11:33:36.925Z,95376.38
2023-04-12T11:36:07.086Z,95380.09
2023-04-12T11:38:36.090Z,95382.19
2023-04-12T11:41:06.843Z,95380.66
2023-04-12T11:43:34.823Z,95373.34
2023-04-12T11:46:03.187Z,95362.22
2023-04-12T11:48:30.848Z,95354.03
2023-04-12T11:51:10.509Z,95346.72
2023-04-12T11:53:38.795Z,95339.53
2023-04-12T11:56:11.301Z,95332.75
2023-04-12T11:58:38.818Z,95325.97
2023-04-12T12:01:06.852Z,95331.56
2023-04-12T12:03:35.308Z,95344.75
2023-04-12T12:06:03.911Z,95332.56
2023-04-12T12:08:32.144Z,95333.47
2023-04-12T12:11:07.885Z,95332.78
2023-04-12T12:13:48.399Z,95331.44
2023-04-12T12:16:16.288Z,95318.09
2023-04-12T12:18:44.774Z,95322.88
2023-04-12T12:21:14.777Z,95332.63
2023-04-12T12:23:44.327Z,95329.09
2023-04-12T12:26:21.085Z,95317.47
2023-04-12T12:28:53.026Z,95317.56
2023-04-12T12:31:22.329Z,95316.00
2023-04-12T12:33:52.510Z,95311.09
2023-04-12T12:36:20.742Z,95313.84
2023-04-12T12:38:49.199Z,95316.59
2023-04-12T12:41:18.255Z,95311.25
2023-04-12T12:43:46.980Z,95306.72
2023-04-12T12:46:17.568Z,95309.91
2023-04-12T12:48:45.777Z,95302.75
2023-04-12T12:51:14.267Z,95309.69
2023-04-12T12:53:42.264Z,95312.88
2023-04-12T12:56:11.328Z,95296.38
2023-04-12T12:58:41.058Z,95295.91
2023-04-12T13:01:09.003Z,95293.88
2023-04-12T13:03:38.074Z,95305.84
2023-04-12T13:06:06.102Z,95291.59
2023-04-12T13:08:35.404Z,95297.53
2023-04-12T13:11:03.060Z,95287.63
2023-04-12T13:13:30.858Z,95287.97
2023-04-12T13:15:58.404Z,95278.41
2023-04-12T13:18:25.960Z,95272.56
2023-04-12T13:20:54.868Z,95267.44
2023-04-12T13:23:22.419Z,95256.78
2023-04-12T13:25:49.939Z,95255.03
2023-04-12T13:28:17.807Z,95260.25
2023-04-12T13:30:45.735Z,95257.94
2023-04-12T13:33:17.286Z,95252.59
2023-04-12T13:35:46.796Z,95248.41
2023-04-12T13:38:15.755Z,95250.78
2023-04-12T13:40:43.276Z,95240.06
2023-04-12T13:43:10.786Z,95241.09
2023-04-12T13:45:38.310Z,95237.44
2023-04-12T13:48:06.033Z,95230.94
2023-04-12T13:50:33.592Z,95233.09
2023-04-12T13:53:01.394Z,95226.47
2023-04-12T13:55:30.396Z,95232.53
2023-04-12T13:57:57.965Z,95236.97
2023-04-12T14:00:25.853Z,95225.13
2023-04-12T14:02:53.409Z,95226.16
2023-04-12T14:05:20.968Z,95224.25
2023-04-12T14:07:49.828Z,95229.38
2023-04-12T14:10:17.344Z,95220.44
2023-04-12T14:12:46.873Z,95220.31
2023-04-12T14:15:14.439Z,95225.00
2023-04-12T14:17:42.048Z,95217.38
2023-04-12T14:20:11.412Z,95216.56
2023-04-12T14:22:39.055Z,95213.38
2023-04-12T14:25:07.984Z,95208.63
2023-04-12T14:27:36.634Z,95213.88
2023-04-12T14:30:07.269Z,95215.44
2023-04-12T14:32:34.953Z,95212.81
2023-04-12T14:35:02.540Z,95206.56
2023-04-12T14:37:30.071Z,95206.09
2023-04-12T14:39:57.608Z,95199.34
2023-04-12T14:42:25.189Z,95191.03
2023-04-12T14:44:52.740Z,95193.25
2023-04-12T14:47:21.711Z,95196.28
2023-04-12T14:49:49.291Z,95190.34
2023-04-12T14:52:16.847Z,95188.75
2023-04-12T14:54:44.391Z,95182.41
2023-04-12T14:57:12.397Z,95181.28
2023-04-12T14:59:39.985Z,95169.66
2023-04-12T15:45:47.705Z,95160.94
2023-04-12T15:48:16.627Z,95154.47
2023-04-12T15:50:44.151Z,95152.63
2023-04-12T15:53:11.747Z,95150.22
2023-04-12T15:55:40.721Z,95165.66
2023-04-12T15:58:08.808Z,95171.91
2023-04-12T16:00:37.324Z,95167.72
2023-04-12T16:03:07.616Z,95175.03
2023-04-12T16:05:36.769Z,95178.66
2023-04-12T16:08:05.137Z,95217.88
2023-04-12T16:10:33.290Z,95209.84
2023-04-12T16:13:00.887Z,95207.84
2023-04-12T16:15:28.402Z,95197.38
2023-04-12T16:17:56.204Z,95200.50
2023-04-12T16:20:24.664Z,95229.78
2023-04-12T16:22:56.667Z,95270.53
2023-04-12T16:25:27.209Z,95289.34
2023-04-12T16:27:55.329Z,95299.09
2023-04-12T16:30:23.510Z,95299.00
2023-04-12T16:32:52.052Z,95313.66
2023-04-12T16:35:19.623Z,95308.63
2023-04-12T16:37:47.650Z,95306.22
2023-04-12T16:40:17.158Z,95317.41
2023-04-12T16:42:45.737Z,95315.69
2023-04-12T16:45:15.004Z,95310.31
2023-04-12T16:47:42.757Z,95303.53
2023-04-12T16:50:13.091Z,95312.03
2023-04-12T16:52:41.262Z,95310.06
2023-04-12T16:55:11.276Z,95314.44
2023-04-12T16:57:41.514Z,95314.28
2023-04-12T17:00:20.518Z,95308.00
2023-04-12T17:02:50.790Z,95309.22
2023-04-12T17:05:19.858Z,95324.56
2023-04-12T17:07:49.491Z,95316.56
2023-04-12T17:10:18.126Z,95310.06
2023-04-12T17:12:47.832Z,95318.78
2023-04-12T17:15:17.961Z,95321.03
2023-04-12T17:17:48.231Z,95318.06
2023-04-12T17:20:16.768Z,95313.28
2023-04-12T17:22:44.329Z,95311.69
2023-04-12T17:25:12.420Z,95306.13
2023-04-12T17:27:41.031Z,95305.75
2023-04-12T17:30:12.965Z,95302.56
2023-04-12T17:32:41.051Z,95291.53
2023-04-12T17:35:10.040Z,95287.34
2023-04-12T17:37:38.328Z,95303.88
2023-04-12T17:40:08.628Z,95317.91
2023-04-12T17:42:36.442Z,95302.69
2023-04-12T17:45:04.231Z,95300.09
2023-04-12T17:47:34.486Z,95314.16
2023-04-12T17:50:02.544Z,95301.34
2023-04-12T17:52:30.215Z,95306.75
2023-04-12T17:54:57.740Z,95305.97
2023-04-12T17:57:25.358Z,95314.81
2023-04-12T17:59:52.881Z,95327.50
2023-04-12T18:02:20.697Z,95333.94
2023-04-12T18:04:49.633Z,95338.00
2023-04-12T18:07:17.621Z,95341.81
2023-04-12T18:09:45.861Z,95360.34
2023-04-12T18:12:13.536Z,95352.50
2023-04-12T18:14:41.490Z,95364.72
2023-04-12T18:17:09.217Z,95379.59
2023-04-12T18:19:37.263Z,95389.25
2023-04-12T18:22:06.686Z,95388.44
2023-04-12T18:24:34.979Z,95381.84
2023-04-12T18:27:04.897Z,95375.22
2023-04-12T18:29:32.787Z,95373.84
2023-04-12T18:32:00.538Z,95379.50
2023-04-12T18:34:28.168Z,95368.47
2023-04-12T18:36:55.814Z,95369.13
2023-04-12T18:39:24.659Z,95367.75
2023-04-12T18:41:52.141Z,95354.13
2023-04-12T18:44:19.967Z,95352.50
2023-04-12T18:46:47.652Z,95349.31
2023-04-12T18:49:15.422Z,95352.34
2023-04-12T18:51:43.697Z,95355.81
2023-04-12T18:54:13.794Z,95357.84
2023-04-12T18:56:43.141Z,95363.63
2023-04-12T18:59:15.872Z,95359.44
2023-04-12T19:01:43.363Z,95351.63
2023-04-12T19:04:11.211Z,95353.06
2023-04-12T19:06:39.066Z,95367.31
2023-04-12T19:09:08.161Z,95367.09
2023-04-12T19:11:37.106Z,95363.91
2023-04-12T19:14:07.200Z,95358.69
2023-04-12T19:16:34.786Z,95369.09
2023-04-12T19:19:02.608Z,95368.31
2023-04-12T19:21:30.997Z,95373.53
2023-04-12T19:23:58.916Z,95365.50
2023-04-12T19:26:28.438Z,95372.53
2023-04-12T19:28:58.701Z,95362.91
2023-04-12T19:31:27.609Z,95354.69
2023-04-12T19:33:55.886Z,95355.91
2023-04-12T19:36:24.519Z,95345.47
2023-04-12T19:38:52.108Z,95347.94
2023-04-12T19:41:20.779Z,95356.97
2023-04-12T19:43:48.703Z,95364.78
2023-04-12T19:46:17.279Z,95369.59
2023-04-12T19:48:46.354Z,95373.59
2023-04-12T19:51:15.298Z,95379.00
2023-04-12T19:53:42.933Z,95375.00
2023-04-12T19:56:12.702Z,95386.06
2023-04-12T19:58:40.811Z,95388.28
2023-04-12T20:01:09.813Z,95390.91
2023-04-12T20:03:38.731Z,95385.91
2023-04-12T20:06:08.889Z,95369.88
2023-04-12T20:08:36.550Z,95360.28
2023-04-12T20:11:04.111Z,95379.56
2023-04-12T20:13:31.798Z,95380.75
2023-04-12T20:16:01.171Z,95381.34
2023-04-12T20:18:29.689Z,95389.16
2023-04-12T20:20:58.012Z,95384.94
2023-04-12T20:23:27.202Z,95394.19
2023-04-12T20:25:55.510Z,95391.81
2023-04-12T20:28:23.327Z,95386.34
2023-04-12T20:30:50.945Z,95379.34
2023-04-12T20:33:19.886Z,95372.53
2023-04-12T20:35:48.080Z,95357.09
2023-04-12T20:38:15.621Z,95351.28
2023-04-12T20:40:45.124Z,95347.69
2023-04-12T20:43:12.644Z,95346.91
2023-04-12T20:45:40.202Z,95347.28
2023-04-12T20:48:07.749Z,95353.09
2023-04-12T20:50:35.277Z,95339.66
2023-04-12T20:53:02.798Z,95340.09
2023-04-12T20:55:34.617Z,95342.31
2023-04-12T20:58:05.376Z,95351.94
2023-04-12T21:00:34.520Z,95358.53
2023-04-12T21:03:03.102Z,95370.78
2023-04-12T21:05:33.650Z,95386.25
2023-04-12T21:08:02.126Z,95400.25
2023-04-12T21:10:29.744Z,95407.09
2023-04-12T21:12:58.256Z,95407.09
2023-04-12T21:15:28.297Z,95408.69
2023-04-12T21:17:55.835Z,95413.28
2023-04-12T21:20:24.588Z,95427.94
2023-04-12T21:22:53.717Z,95427.16
2023-04-12T21:25:21.481Z,95424.75
2023-04-12T21:27:49.063Z,95440.75
2023-04-12T21:30:16.579Z,95441.19
2023-04-12T21:32:45.598Z,95449.22
2023-04-12T21:35:17.397Z,95448.84
2023-04-12T21:37:45.021Z,95451.63
2023-04-12T21:40:13.213Z,95461.28
2023-04-12T21:42:41.530Z,95468.28
2023-04-12T21:45:10.417Z,95474.50
2023-04-12T21:47:40.529Z,95475.72
2023-04-12T21:50:11.210Z,95486.72
2023-04-12T21:52:40.130Z,95505.34
2023-04-12T21:55:08.179Z,95541.03
2023-04-12T21:57:36.417Z,95551.06
2023-04-12T22:00:08.320Z,95542.91
2023-04-12T22:02:36.146Z,95543.09
2023-04-12T22:05:04.137Z,95556.47
2023-04-12T22:07:33.769Z,95561.66
2023-04-12T22:10:02.004Z,95538.03
2023-04-12T22:12:29.995Z,95527.44
2023-04-12T22:14:57.818Z,95533.00
2023-04-12T22:17:25.718Z,95528.41
2023-04-12T22:19:56.593Z,95516.22
2023-04-12T22:22:24.089Z,95526.84
2023-04-12T22:24:53.837Z,95541.06
2023-04-12T22:27:21.373Z,95544.84
2023-04-12T22:29:49.710Z,95558.47
2023-04-12T22:32:17.271Z,95561.88
2023-04-12T22:34:45.034Z,95562.47
2023-04-12T22:37:14.738Z,95563.88
2023-04-12T22:39:42.858Z,95558.66
2023-04-12T22:42:11.838Z,95541.44
2023-04-12T22:44:39.588Z,95539.03
2023-04-12T22:47:09.215Z,95537.84
2023-04-12T22:49:47.012Z,95537.44
2023-04-12T22:52:15.362Z,95529.84
2023-04-12T22:54:44.081Z,95525.84
2023-04-12T22:57:14.034Z,95524.25
2023-04-12T22:59:42.495Z,95529.44
2023-04-12T23:02:11.266Z,95531.03
2023-04-12T23:04:39.586Z,95531.03
2023-04-12T23:07:08.128Z,95529.44
2023-04-12T23:09:36.456Z,95541.25
2023-04-12T23:12:06.496Z,95554.25
2023-04-12T23:14:37.889Z,95549.44
2023-04-12T23:17:07.628Z,95550.03
2023-04-12T23:19:35.971Z,95547.06
2023-04-12T23:22:05.356Z,95551.47
2023-04-12T23:24:34.600Z,95554.25
2023-04-12T23:27:03.253Z,95552.25
2023-04-12T23:29:31.824Z,95552.88
2023-04-12T23:32:01.840Z,95543.84
2023-04-12T23:34:30.981Z,95551.66
2023-04-12T23:36:59.993Z,95553.47
2023-04-12T23:39:28.720Z,95564.47
2023-04-12T23:41:57.182Z,95557.47
2023-04-12T23:44:27.986Z,95560.66
2023-04-12T23:46:56.676Z,95572.47
2023-04-12T23:49:26.634Z,95574.44
2023-04-12T23:51:55.147Z,95566.66
2023-04-12T23:54:23.953Z,95567.44
2023-04-12T23:56:52.325Z,95570.03
2023-04-12T23:59:21.751Z,95571.03
